sensor_id;sensor_type;location;lat;lon;timestamp;P1;durP1;ratioP1;P2;durP2;ratioP2
31760;SDS011;18335;51.486;7.562;2022-08-04T00:01:02;8.20;;;2.40;;
31760;SDS011;18335;51.486;7.562;2022-08-04T00:03:32;13.73;;;2.40;;
31760;SDS011;18335;51.486;7.562;2022-08-04T00:06:13;12.15;;;2.15;;
31760;SDS011;18335;51.486;7.562;2022-08-04T00:08:45;8.73;;;2.25;;
31760;SDS011;18335;51.486;7.562;2022-08-04T00:11:14;11.60;;;2.38;;
31760;SDS011;18335;51.486;7.562;2022-08-04T00:13:49;12.70;;;3.28;;
31760;SDS011;18335;51.486;7.562;2022-08-04T00:16:21;8.18;;;2.08;;
31760;SDS011;18335;51.486;7.562;2022-08-04T00:18:51;10.90;;;2.95;;
31760;SDS011;18335;51.486;7.562;2022-08-04T00:21:21;12.98;;;2.83;;
31760;SDS011;18335;51.486;7.562;2022-08-04T00:23:50;9.82;;;2.78;;
31760;SDS011;18335;51.486;7.562;2022-08-04T00:26:17;7.93;;;2.25;;
31760;SDS011;18335;51.486;7.562;2022-08-04T00:28:46;13.85;;;3.10;;
31760;SDS011;18335;51.486;7.562;2022-08-04T00:31:14;11.18;;;2.47;;
31760;SDS011;18335;51.486;7.562;2022-08-04T00:33:43;8.93;;;2.42;;
31760;SDS011;18335;51.486;7.562;2022-08-04T00:36:11;9.07;;;2.67;;
31760;SDS011;18335;51.486;7.562;2022-08-04T00:38:39;8.52;;;1.92;;
31760;SDS011;18335;51.486;7.562;2022-08-04T00:41:08;10.48;;;2.65;;
31760;SDS011;18335;51.486;7.562;2022-08-04T00:43:46;9.18;;;2.80;;
31760;SDS011;18335;51.486;7.562;2022-08-04T00:46:35;13.43;;;2.78;;
31760;SDS011;18335;51.486;7.562;2022-08-04T00:49:21;16.33;;;2.80;;
31760;SDS011;18335;51.486;7.562;2022-08-04T00:52:12;7.10;;;2.20;;
31760;SDS011;18335;51.486;7.562;2022-08-04T00:54:54;11.50;;;2.95;;
31760;SDS011;18335;51.486;7.562;2022-08-04T00:57:30;12.52;;;3.58;;
31760;SDS011;18335;51.486;7.562;2022-08-04T01:00:14;12.50;;;3.00;;
31760;SDS011;18335;51.486;7.562;2022-08-04T01:02:45;10.57;;;2.95;;
31760;SDS011;18335;51.486;7.562;2022-08-04T01:05:27;12.45;;;3.08;;
31760;SDS011;18335;51.486;7.562;2022-08-04T01:08:05;9.10;;;2.80;;
31760;SDS011;18335;51.486;7.562;2022-08-04T01:10:47;11.93;;;3.20;;
31760;SDS011;18335;51.486;7.562;2022-08-04T01:13:25;13.40;;;3.40;;
31760;SDS011;18335;51.486;7.562;2022-08-04T01:16:10;9.93;;;2.28;;
31760;SDS011;18335;51.486;7.562;2022-08-04T01:18:45;12.18;;;2.83;;
31760;SDS011;18335;51.486;7.562;2022-08-04T01:24:25;8.73;;;2.67;;
31760;SDS011;18335;51.486;7.562;2022-08-04T01:27:00;8.60;;;2.40;;
31760;SDS011;18335;51.486;7.562;2022-08-04T01:29:32;12.20;;;2.55;;
31760;SDS011;18335;51.486;7.562;2022-08-04T01:32:03;11.30;;;3.83;;
31760;SDS011;18335;51.486;7.562;2022-08-04T01:34:34;8.63;;;2.72;;
31760;SDS011;18335;51.486;7.562;2022-08-04T01:37:10;9.27;;;3.25;;
31760;SDS011;18335;51.486;7.562;2022-08-04T01:39:42;12.98;;;2.65;;
31760;SDS011;18335;51.486;7.562;2022-08-04T01:42:16;10.65;;;2.85;;
31760;SDS011;18335;51.486;7.562;2022-08-04T01:44:48;8.27;;;2.50;;
31760;SDS011;18335;51.486;7.562;2022-08-04T01:47:16;9.88;;;3.40;;
31760;SDS011;18335;51.486;7.562;2022-08-04T01:49:48;6.55;;;2.70;;
31760;SDS011;18335;51.486;7.562;2022-08-04T01:52:16;9.43;;;2.67;;
31760;SDS011;18335;51.486;7.562;2022-08-04T01:54:44;11.05;;;3.00;;
31760;SDS011;18335;51.486;7.562;2022-08-04T01:57:12;9.40;;;3.00;;
31760;SDS011;18335;51.486;7.562;2022-08-04T01:59:42;8.07;;;2.95;;
31760;SDS011;18335;51.486;7.562;2022-08-04T02:02:12;12.00;;;2.75;;
31760;SDS011;18335;51.486;7.562;2022-08-04T02:04:39;8.55;;;2.97;;
31760;SDS011;18335;51.486;7.562;2022-08-04T02:07:14;8.43;;;3.13;;
31760;SDS011;18335;51.486;7.562;2022-08-04T02:09:58;8.25;;;2.85;;
31760;SDS011;18335;51.486;7.562;2022-08-04T02:15:06;9.52;;;3.03;;
31760;SDS011;18335;51.486;7.562;2022-08-04T02:17:43;8.25;;;3.00;;
31760;SDS011;18335;51.486;7.562;2022-08-04T02:20:18;9.68;;;3.17;;
31760;SDS011;18335;51.486;7.562;2022-08-04T02:22:50;7.95;;;3.17;;
31760;SDS011;18335;51.486;7.562;2022-08-04T02:25:22;7.95;;;2.95;;
31760;SDS011;18335;51.486;7.562;2022-08-04T02:27:54;8.70;;;3.30;;
31760;SDS011;18335;51.486;7.562;2022-08-04T02:30:25;9.60;;;3.20;;
31760;SDS011;18335;51.486;7.562;2022-08-04T02:32:58;12.07;;;3.60;;
31760;SDS011;18335;51.486;7.562;2022-08-04T02:35:29;8.60;;;2.90;;
31760;SDS011;18335;51.486;7.562;2022-08-04T02:38:07;11.40;;;3.10;;
31760;SDS011;18335;51.486;7.562;2022-08-04T02:40:42;14.07;;;3.85;;
31760;SDS011;18335;51.486;7.562;2022-08-04T02:43:10;8.40;;;2.63;;
31760;SDS011;18335;51.486;7.562;2022-08-04T02:45:40;5.75;;;2.60;;
31760;SDS011;18335;51.486;7.562;2022-08-04T02:48:09;12.95;;;3.90;;
31760;SDS011;18335;51.486;7.562;2022-08-04T02:50:39;10.80;;;3.08;;
31760;SDS011;18335;51.486;7.562;2022-08-04T02:53:09;8.65;;;3.30;;
31760;SDS011;18335;51.486;7.562;2022-08-04T02:55:39;11.35;;;3.42;;
31760;SDS011;18335;51.486;7.562;2022-08-04T02:58:09;13.25;;;3.30;;
31760;SDS011;18335;51.486;7.562;2022-08-04T03:00:40;9.57;;;4.32;;
31760;SDS011;18335;51.486;7.562;2022-08-04T03:03:14;10.80;;;4.18;;
31760;SDS011;18335;51.486;7.562;2022-08-04T03:05:54;10.73;;;3.17;;
31760;SDS011;18335;51.486;7.562;2022-08-04T03:08:55;9.05;;;3.22;;
31760;SDS011;18335;51.486;7.562;2022-08-04T03:11:40;10.15;;;4.03;;
31760;SDS011;18335;51.486;7.562;2022-08-04T03:14:27;10.02;;;3.92;;
31760;SDS011;18335;51.486;7.562;2022-08-04T03:17:22;10.05;;;3.20;;
31760;SDS011;18335;51.486;7.562;2022-08-04T03:20:28;13.13;;;4.22;;
31760;SDS011;18335;51.486;7.562;2022-08-04T03:26:44;11.68;;;4.15;;
31760;SDS011;18335;51.486;7.562;2022-08-04T03:29:25;12.05;;;3.88;;
31760;SDS011;18335;51.486;7.562;2022-08-04T03:32:28;8.52;;;3.38;;
31760;SDS011;18335;51.486;7.562;2022-08-04T03:35:15;9.93;;;4.10;;
31760;SDS011;18335;51.486;7.562;2022-08-04T03:38:05;7.85;;;3.45;;
31760;SDS011;18335;51.486;7.562;2022-08-04T03:40:52;12.65;;;4.32;;
31760;SDS011;18335;51.486;7.562;2022-08-04T03:46:52;12.23;;;3.85;;
31760;SDS011;18335;51.486;7.562;2022-08-04T03:49:48;11.02;;;4.45;;
31760;SDS011;18335;51.486;7.562;2022-08-04T03:52:52;10.10;;;3.67;;
31760;SDS011;18335;51.486;7.562;2022-08-04T03:55:42;11.80;;;4.45;;
31760;SDS011;18335;51.486;7.562;2022-08-04T03:58:20;14.05;;;4.75;;
31760;SDS011;18335;51.486;7.562;2022-08-04T04:01:11;10.88;;;4.22;;
31760;SDS011;18335;51.486;7.562;2022-08-04T04:04:11;14.68;;;5.32;;
31760;SDS011;18335;51.486;7.562;2022-08-04T04:10:02;7.53;;;3.65;;
31760;SDS011;18335;51.486;7.562;2022-08-04T04:13:01;9.18;;;3.70;;
31760;SDS011;18335;51.486;7.562;2022-08-04T04:18:58;10.20;;;3.80;;
31760;SDS011;18335;51.486;7.562;2022-08-04T04:24:34;11.27;;;3.95;;
31760;SDS011;18335;51.486;7.562;2022-08-04T04:27:15;10.13;;;4.00;;
31760;SDS011;18335;51.486;7.562;2022-08-04T04:29:56;8.48;;;3.65;;
31760;SDS011;18335;51.486;7.562;2022-08-04T04:32:34;14.95;;;3.95;;
31760;SDS011;18335;51.486;7.562;2022-08-04T04:35:20;10.70;;;3.55;;
31760;SDS011;18335;51.486;7.562;2022-08-04T04:38:04;10.98;;;4.35;;
31760;SDS011;18335;51.486;7.562;2022-08-04T04:40:47;7.50;;;3.92;;
31760;SDS011;18335;51.486;7.562;2022-08-04T04:43:31;8.85;;;4.10;;
31760;SDS011;18335;51.486;7.562;2022-08-04T04:46:22;11.98;;;3.97;;
31760;SDS011;18335;51.486;7.562;2022-08-04T04:48:59;10.52;;;4.13;;
31760;SDS011;18335;51.486;7.562;2022-08-04T04:51:36;12.13;;;4.60;;
31760;SDS011;18335;51.486;7.562;2022-08-04T04:54:10;13.82;;;4.47;;
31760;SDS011;18335;51.486;7.562;2022-08-04T04:56:52;9.13;;;3.40;;
31760;SDS011;18335;51.486;7.562;2022-08-04T04:59:31;6.78;;;3.20;;
31760;SDS011;18335;51.486;7.562;2022-08-04T05:02:11;6.88;;;3.25;;
31760;SDS011;18335;51.486;7.562;2022-08-04T05:05:00;12.13;;;4.00;;
31760;SDS011;18335;51.486;7.562;2022-08-04T05:07:44;11.43;;;4.20;;
31760;SDS011;18335;51.486;7.562;2022-08-04T05:10:26;13.40;;;3.75;;
31760;SDS011;18335;51.486;7.562;2022-08-04T05:13:15;8.85;;;3.78;;
31760;SDS011;18335;51.486;7.562;2022-08-04T05:15:55;7.13;;;3.28;;
31760;SDS011;18335;51.486;7.562;2022-08-04T05:18:27;14.90;;;4.70;;
31760;SDS011;18335;51.486;7.562;2022-08-04T05:21:02;7.50;;;3.92;;
31760;SDS011;18335;51.486;7.562;2022-08-04T05:23:36;10.15;;;4.00;;
31760;SDS011;18335;51.486;7.562;2022-08-04T05:26:10;11.65;;;4.55;;
31760;SDS011;18335;51.486;7.562;2022-08-04T05:28:42;12.02;;;4.57;;
31760;SDS011;18335;51.486;7.562;2022-08-04T05:31:14;11.15;;;3.50;;
31760;SDS011;18335;51.486;7.562;2022-08-04T05:33:46;9.10;;;3.95;;
31760;SDS011;18335;51.486;7.562;2022-08-04T05:36:17;10.50;;;4.22;;
31760;SDS011;18335;51.486;7.562;2022-08-04T05:38:48;7.88;;;3.90;;
31760;SDS011;18335;51.486;7.562;2022-08-04T05:41:18;10.88;;;3.28;;
31760;SDS011;18335;51.486;7.562;2022-08-04T05:43:46;9.45;;;4.07;;
31760;SDS011;18335;51.486;7.562;2022-08-04T05:46:15;10.35;;;3.80;;
31760;SDS011;18335;51.486;7.562;2022-08-04T05:48:43;9.75;;;3.70;;
31760;SDS011;18335;51.486;7.562;2022-08-04T05:51:12;11.93;;;3.90;;
31760;SDS011;18335;51.486;7.562;2022-08-04T05:53:40;11.98;;;3.97;;
31760;SDS011;18335;51.486;7.562;2022-08-04T05:56:10;8.13;;;3.50;;
31760;SDS011;18335;51.486;7.562;2022-08-04T05:58:39;8.35;;;3.45;;
31760;SDS011;18335;51.486;7.562;2022-08-04T06:01:07;10.73;;;4.30;;
31760;SDS011;18335;51.486;7.562;2022-08-04T06:03:36;11.00;;;4.03;;
31760;SDS011;18335;51.486;7.562;2022-08-04T06:06:06;10.05;;;3.50;;
31760;SDS011;18335;51.486;7.562;2022-08-04T06:08:36;7.38;;;3.22;;
31760;SDS011;18335;51.486;7.562;2022-08-04T06:11:03;9.98;;;3.53;;
31760;SDS011;18335;51.486;7.562;2022-08-04T06:13:35;10.32;;;3.70;;
31760;SDS011;18335;51.486;7.562;2022-08-04T06:16:05;8.25;;;3.00;;
31760;SDS011;18335;51.486;7.562;2022-08-04T06:18:33;14.65;;;4.15;;
31760;SDS011;18335;51.486;7.562;2022-08-04T06:21:02;8.80;;;3.15;;
31760;SDS011;18335;51.486;7.562;2022-08-04T06:23:32;7.25;;;3.55;;
31760;SDS011;18335;51.486;7.562;2022-08-04T06:26:02;11.73;;;3.28;;
31760;SDS011;18335;51.486;7.562;2022-08-04T06:28:31;9.05;;;3.30;;
31760;SDS011;18335;51.486;7.562;2022-08-04T06:30:58;9.80;;;3.10;;
31760;SDS011;18335;51.486;7.562;2022-08-04T06:33:30;10.88;;;3.75;;
31760;SDS011;18335;51.486;7.562;2022-08-04T06:35:59;9.82;;;3.42;;
31760;SDS011;18335;51.486;7.562;2022-08-04T06:38:28;10.57;;;4.20;;
31760;SDS011;18335;51.486;7.562;2022-08-04T06:40:58;9.90;;;4.35;;
31760;SDS011;18335;51.486;7.562;2022-08-04T06:43:28;9.90;;;3.13;;
31760;SDS011;18335;51.486;7.562;2022-08-04T06:45:56;7.20;;;3.13;;
31760;SDS011;18335;51.486;7.562;2022-08-04T06:48:27;8.75;;;3.22;;
31760;SDS011;18335;51.486;7.562;2022-08-04T06:50:54;10.98;;;3.55;;
31760;SDS011;18335;51.486;7.562;2022-08-04T06:53:23;8.32;;;3.03;;
31760;SDS011;18335;51.486;7.562;2022-08-04T06:55:51;8.35;;;3.25;;
31760;SDS011;18335;51.486;7.562;2022-08-04T06:58:21;5.70;;;2.55;;
31760;SDS011;18335;51.486;7.562;2022-08-04T07:00:48;9.15;;;3.20;;
31760;SDS011;18335;51.486;7.562;2022-08-04T07:03:17;9.68;;;3.92;;
31760;SDS011;18335;51.486;7.562;2022-08-04T07:05:46;7.93;;;2.97;;
31760;SDS011;18335;51.486;7.562;2022-08-04T07:08:13;9.50;;;3.10;;
31760;SDS011;18335;51.486;7.562;2022-08-04T07:10:41;9.23;;;3.10;;
31760;SDS011;18335;51.486;7.562;2022-08-04T07:13:10;8.30;;;2.72;;
31760;SDS011;18335;51.486;7.562;2022-08-04T07:15:39;7.43;;;2.83;;
31760;SDS011;18335;51.486;7.562;2022-08-04T07:18:08;6.72;;;2.83;;
31760;SDS011;18335;51.486;7.562;2022-08-04T07:20:38;8.40;;;2.70;;
31760;SDS011;18335;51.486;7.562;2022-08-04T07:23:06;7.38;;;2.92;;
31760;SDS011;18335;51.486;7.562;2022-08-04T07:25:36;5.65;;;2.90;;
31760;SDS011;18335;51.486;7.562;2022-08-04T07:28:05;7.15;;;2.63;;
31760;SDS011;18335;51.486;7.562;2022-08-04T07:30:34;5.40;;;2.60;;
31760;SDS011;18335;51.486;7.562;2022-08-04T07:33:03;7.95;;;2.75;;
31760;SDS011;18335;51.486;7.562;2022-08-04T07:35:31;7.57;;;2.60;;
31760;SDS011;18335;51.486;7.562;2022-08-04T07:37:59;8.18;;;2.90;;
31760;SDS011;18335;51.486;7.562;2022-08-04T07:40:26;11.30;;;2.95;;
31760;SDS011;18335;51.486;7.562;2022-08-04T07:42:54;10.10;;;2.70;;
31760;SDS011;18335;51.486;7.562;2022-08-04T07:45:21;9.43;;;2.97;;
31760;SDS011;18335;51.486;7.562;2022-08-04T07:47:49;7.75;;;3.58;;
31760;SDS011;18335;51.486;7.562;2022-08-04T07:50:17;11.05;;;3.35;;
31760;SDS011;18335;51.486;7.562;2022-08-04T07:52:45;8.02;;;3.08;;
31760;SDS011;18335;51.486;7.562;2022-08-04T07:55:13;9.23;;;2.95;;
31760;SDS011;18335;51.486;7.562;2022-08-04T07:57:40;5.80;;;3.08;;
31760;SDS011;18335;51.486;7.562;2022-08-04T08:00:08;8.65;;;3.17;;
31760;SDS011;18335;51.486;7.562;2022-08-04T08:02:39;9.10;;;2.80;;
31760;SDS011;18335;51.486;7.562;2022-08-04T08:05:07;4.70;;;2.80;;
31760;SDS011;18335;51.486;7.562;2022-08-04T08:07:37;9.05;;;2.40;;
31760;SDS011;18335;51.486;7.562;2022-08-04T08:10:05;5.57;;;2.78;;
31760;SDS011;18335;51.486;7.562;2022-08-04T08:12:37;7.93;;;2.92;;
31760;SDS011;18335;51.486;7.562;2022-08-04T08:15:05;7.93;;;3.92;;
31760;SDS011;18335;51.486;7.562;2022-08-04T08:17:33;9.00;;;3.95;;
31760;SDS011;18335;51.486;7.562;2022-08-04T08:19:59;8.30;;;2.70;;
31760;SDS011;18335;51.486;7.562;2022-08-04T08:22:26;14.15;;;3.50;;
31760;SDS011;18335;51.486;7.562;2022-08-04T08:24:55;10.15;;;2.95;;
31760;SDS011;18335;51.486;7.562;2022-08-04T08:27:22;6.45;;;2.45;;
31760;SDS011;18335;51.486;7.562;2022-08-04T08:29:49;7.18;;;2.55;;
31760;SDS011;18335;51.486;7.562;2022-08-04T08:32:16;10.95;;;3.50;;
31760;SDS011;18335;51.486;7.562;2022-08-04T08:34:42;5.28;;;2.47;;
31760;SDS011;18335;51.486;7.562;2022-08-04T08:37:11;6.63;;;2.80;;
31760;SDS011;18335;51.486;7.562;2022-08-04T08:39:41;5.25;;;2.33;;
31760;SDS011;18335;51.486;7.562;2022-08-04T08:42:24;14.57;;;3.08;;
31760;SDS011;18335;51.486;7.562;2022-08-04T08:45:23;8.10;;;2.60;;
31760;SDS011;18335;51.486;7.562;2022-08-04T08:48:20;7.10;;;2.33;;
31760;SDS011;18335;51.486;7.562;2022-08-04T08:51:18;5.88;;;2.53;;
31760;SDS011;18335;51.486;7.562;2022-08-04T08:54:07;6.75;;;2.63;;
31760;SDS011;18335;51.486;7.562;2022-08-04T08:56:56;7.10;;;2.95;;
31760;SDS011;18335;51.486;7.562;2022-08-04T08:59:40;5.60;;;2.40;;
31760;SDS011;18335;51.486;7.562;2022-08-04T09:02:27;7.28;;;2.58;;
31760;SDS011;18335;51.486;7.562;2022-08-04T09:05:28;7.35;;;2.70;;
31760;SDS011;18335;51.486;7.562;2022-08-04T09:08:21;10.65;;;2.90;;
31760;SDS011;18335;51.486;7.562;2022-08-04T09:11:05;6.50;;;2.65;;
31760;SDS011;18335;51.486;7.562;2022-08-04T09:13:36;7.60;;;2.10;;
31760;SDS011;18335;51.486;7.562;2022-08-04T09:16:10;9.98;;;2.80;;
31760;SDS011;18335;51.486;7.562;2022-08-04T09:18:44;7.95;;;2.53;;
31760;SDS011;18335;51.486;7.562;2022-08-04T09:21:22;4.88;;;2.30;;
31760;SDS011;18335;51.486;7.562;2022-08-04T09:23:57;6.22;;;2.10;;
31760;SDS011;18335;51.486;7.562;2022-08-04T09:26:31;6.03;;;2.20;;
31760;SDS011;18335;51.486;7.562;2022-08-04T09:29:06;6.85;;;2.03;;
31760;SDS011;18335;51.486;7.562;2022-08-04T09:31:41;6.68;;;2.17;;
31760;SDS011;18335;51.486;7.562;2022-08-04T09:34:15;7.25;;;2.10;;
31760;SDS011;18335;51.486;7.562;2022-08-04T09:36:50;7.05;;;2.30;;
31760;SDS011;18335;51.486;7.562;2022-08-04T09:39:25;6.45;;;2.22;;
31760;SDS011;18335;51.486;7.562;2022-08-04T09:42:02;7.67;;;2.53;;
31760;SDS011;18335;51.486;7.562;2022-08-04T09:44:39;5.68;;;2.15;;
31760;SDS011;18335;51.486;7.562;2022-08-04T09:49:46;4.70;;;1.67;;
31760;SDS011;18335;51.486;7.562;2022-08-04T09:52:22;6.05;;;2.42;;
31760;SDS011;18335;51.486;7.562;2022-08-04T09:54:59;6.32;;;2.00;;
31760;SDS011;18335;51.486;7.562;2022-08-04T09:57:37;8.43;;;2.47;;
31760;SDS011;18335;51.486;7.562;2022-08-04T10:00:12;10.52;;;2.40;;
31760;SDS011;18335;51.486;7.562;2022-08-04T10:02:43;3.50;;;1.77;;
31760;SDS011;18335;51.486;7.562;2022-08-04T10:05:13;10.07;;;2.75;;
31760;SDS011;18335;51.486;7.562;2022-08-04T10:08:10;4.93;;;1.83;;
31760;SDS011;18335;51.486;7.562;2022-08-04T10:10:50;5.75;;;2.28;;
31760;SDS011;18335;51.486;7.562;2022-08-04T10:13:24;5.38;;;1.77;;
31760;SDS011;18335;51.486;7.562;2022-08-04T10:16:04;7.45;;;1.88;;
31760;SDS011;18335;51.486;7.562;2022-08-04T10:18:47;6.25;;;1.70;;
31760;SDS011;18335;51.486;7.562;2022-08-04T10:21:22;8.90;;;2.20;;
31760;SDS011;18335;51.486;7.562;2022-08-04T10:24:06;4.47;;;1.73;;
31760;SDS011;18335;51.486;7.562;2022-08-04T10:26:55;4.70;;;1.70;;
31760;SDS011;18335;51.486;7.562;2022-08-04T10:29:27;2.72;;;1.48;;
31760;SDS011;18335;51.486;7.562;2022-08-04T10:31:58;6.22;;;1.60;;
31760;SDS011;18335;51.486;7.562;2022-08-04T10:34:35;3.55;;;1.73;;
31760;SDS011;18335;51.486;7.562;2022-08-04T10:37:11;3.25;;;1.30;;
31760;SDS011;18335;51.486;7.562;2022-08-04T10:39:46;5.43;;;1.67;;
31760;SDS011;18335;51.486;7.562;2022-08-04T10:42:37;6.20;;;1.70;;
31760;SDS011;18335;51.486;7.562;2022-08-04T10:45:16;4.00;;;1.70;;
31760;SDS011;18335;51.486;7.562;2022-08-04T10:47:48;6.07;;;1.88;;
31760;SDS011;18335;51.486;7.562;2022-08-04T10:50:21;7.90;;;2.13;;
31760;SDS011;18335;51.486;7.562;2022-08-04T10:52:52;7.28;;;1.58;;
31760;SDS011;18335;51.486;7.562;2022-08-04T10:55:25;11.98;;;2.33;;
31760;SDS011;18335;51.486;7.562;2022-08-04T10:57:58;4.28;;;1.90;;
31760;SDS011;18335;51.486;7.562;2022-08-04T11:00:27;5.63;;;1.60;;
31760;SDS011;18335;51.486;7.562;2022-08-04T11:02:57;7.43;;;2.33;;
31760;SDS011;18335;51.486;7.562;2022-08-04T11:05:34;3.80;;;1.58;;
31760;SDS011;18335;51.486;7.562;2022-08-04T11:08:06;5.05;;;1.77;;
31760;SDS011;18335;51.486;7.562;2022-08-04T11:10:39;4.97;;;1.63;;
31760;SDS011;18335;51.486;7.562;2022-08-04T11:13:09;6.63;;;1.55;;
31760;SDS011;18335;51.486;7.562;2022-08-04T11:15:39;5.28;;;1.88;;
31760;SDS011;18335;51.486;7.562;2022-08-04T11:18:20;3.53;;;1.40;;
31760;SDS011;18335;51.486;7.562;2022-08-04T11:20:54;4.40;;;1.70;;
31760;SDS011;18335;51.486;7.562;2022-08-04T11:23:27;4.50;;;1.70;;
31760;SDS011;18335;51.486;7.562;2022-08-04T11:26:02;3.70;;;1.55;;
31760;SDS011;18335;51.486;7.562;2022-08-04T11:28:38;2.28;;;1.38;;
31760;SDS011;18335;51.486;7.562;2022-08-04T11:31:13;5.57;;;1.67;;
31760;SDS011;18335;51.486;7.562;2022-08-04T11:33:46;4.68;;;2.08;;
31760;SDS011;18335;51.486;7.562;2022-08-04T11:36:23;13.13;;;2.10;;
31760;SDS011;18335;51.486;7.562;2022-08-04T11:38:58;7.50;;;2.17;;
31760;SDS011;18335;51.486;7.562;2022-08-04T11:41:45;4.95;;;2.35;;
31760;SDS011;18335;51.486;7.562;2022-08-04T11:44:18;5.93;;;1.90;;
31760;SDS011;18335;51.486;7.562;2022-08-04T11:46:52;9.57;;;2.42;;
31760;SDS011;18335;51.486;7.562;2022-08-04T11:49:25;5.05;;;1.70;;
31760;SDS011;18335;51.486;7.562;2022-08-04T11:52:00;8.65;;;3.25;;
31760;SDS011;18335;51.486;7.562;2022-08-04T11:54:29;4.40;;;1.83;;
31760;SDS011;18335;51.486;7.562;2022-08-04T11:56:59;5.43;;;2.00;;
31760;SDS011;18335;51.486;7.562;2022-08-04T11:59:27;5.82;;;2.33;;
31760;SDS011;18335;51.486;7.562;2022-08-04T12:02:04;6.88;;;2.22;;
31760;SDS011;18335;51.486;7.562;2022-08-04T12:04:46;8.60;;;2.65;;
31760;SDS011;18335;51.486;7.562;2022-08-04T12:07:25;11.18;;;2.28;;
31760;SDS011;18335;51.486;7.562;2022-08-04T12:10:08;6.35;;;2.38;;
31760;SDS011;18335;51.486;7.562;2022-08-04T12:12:44;6.95;;;2.30;;
31760;SDS011;18335;51.486;7.562;2022-08-04T12:15:21;7.45;;;2.53;;
31760;SDS011;18335;51.486;7.562;2022-08-04T12:17:53;10.40;;;2.80;;
31760;SDS011;18335;51.486;7.562;2022-08-04T12:20:26;7.32;;;2.30;;
31760;SDS011;18335;51.486;7.562;2022-08-04T12:22:57;7.32;;;2.63;;
31760;SDS011;18335;51.486;7.562;2022-08-04T12:25:27;8.70;;;1.90;;
31760;SDS011;18335;51.486;7.562;2022-08-04T12:27:58;8.68;;;2.00;;
31760;SDS011;18335;51.486;7.562;2022-08-04T12:30:33;8.75;;;2.10;;
31760;SDS011;18335;51.486;7.562;2022-08-04T12:33:03;6.55;;;2.15;;
31760;SDS011;18335;51.486;7.562;2022-08-04T12:35:33;7.80;;;2.38;;
31760;SDS011;18335;51.486;7.562;2022-08-04T12:38:06;7.43;;;2.70;;
31760;SDS011;18335;51.486;7.562;2022-08-04T12:40:38;8.13;;;2.70;;
31760;SDS011;18335;51.486;7.562;2022-08-04T12:43:12;14.95;;;3.05;;
31760;SDS011;18335;51.486;7.562;2022-08-04T12:45:45;7.82;;;2.38;;
31760;SDS011;18335;51.486;7.562;2022-08-04T12:48:16;8.25;;;2.63;;
31760;SDS011;18335;51.486;7.562;2022-08-04T12:50:45;8.20;;;2.60;;
31760;SDS011;18335;51.486;7.562;2022-08-04T12:53:15;10.98;;;2.95;;
31760;SDS011;18335;51.486;7.562;2022-08-04T12:55:44;8.90;;;2.65;;
31760;SDS011;18335;51.486;7.562;2022-08-04T12:58:14;15.05;;;3.25;;
31760;SDS011;18335;51.486;7.562;2022-08-04T13:00:43;9.95;;;2.47;;
31760;SDS011;18335;51.486;7.562;2022-08-04T13:03:18;14.50;;;2.80;;
31760;SDS011;18335;51.486;7.562;2022-08-04T13:05:48;9.90;;;3.40;;
31760;SDS011;18335;51.486;7.562;2022-08-04T13:08:21;6.43;;;2.63;;
31760;SDS011;18335;51.486;7.562;2022-08-04T13:10:49;9.05;;;2.30;;
31760;SDS011;18335;51.486;7.562;2022-08-04T13:13:18;8.35;;;2.20;;
31760;SDS011;18335;51.486;7.562;2022-08-04T13:15:53;8.85;;;2.05;;
31760;SDS011;18335;51.486;7.562;2022-08-04T13:18:21;12.55;;;2.38;;
31760;SDS011;18335;51.486;7.562;2022-08-04T13:20:49;5.97;;;2.88;;
31760;SDS011;18335;51.486;7.562;2022-08-04T13:23:17;11.35;;;2.95;;
31760;SDS011;18335;51.486;7.562;2022-08-04T13:25:46;10.65;;;2.25;;
31760;SDS011;18335;51.486;7.562;2022-08-04T13:28:15;9.80;;;2.97;;
31760;SDS011;18335;51.486;7.562;2022-08-04T13:30:45;10.65;;;3.00;;
31760;SDS011;18335;51.486;7.562;2022-08-04T13:33:14;12.82;;;3.15;;
31760;SDS011;18335;51.486;7.562;2022-08-04T13:35:42;7.93;;;2.88;;
31760;SDS011;18335;51.486;7.562;2022-08-04T13:38:11;7.93;;;2.97;;
31760;SDS011;18335;51.486;7.562;2022-08-04T13:40:39;10.25;;;2.85;;
31760;SDS011;18335;51.486;7.562;2022-08-04T13:43:09;10.75;;;2.65;;
31760;SDS011;18335;51.486;7.562;2022-08-04T13:45:48;9.38;;;2.80;;
31760;SDS011;18335;51.486;7.562;2022-08-04T13:48:16;11.32;;;3.55;;
31760;SDS011;18335;51.486;7.562;2022-08-04T13:50:44;12.07;;;3.10;;
31760;SDS011;18335;51.486;7.562;2022-08-04T13:53:12;12.48;;;3.45;;
31760;SDS011;18335;51.486;7.562;2022-08-04T13:55:43;12.55;;;3.20;;
31760;SDS011;18335;51.486;7.562;2022-08-04T13:58:20;13.60;;;2.85;;
31760;SDS011;18335;51.486;7.562;2022-08-04T14:00:50;10.13;;;2.92;;
31760;SDS011;18335;51.486;7.562;2022-08-04T14:03:24;10.20;;;3.33;;
31760;SDS011;18335;51.486;7.562;2022-08-04T14:06:15;12.05;;;2.70;;
31760;SDS011;18335;51.486;7.562;2022-08-04T14:08:48;11.88;;;3.25;;
31760;SDS011;18335;51.486;7.562;2022-08-04T14:11:17;10.13;;;3.22;;
31760;SDS011;18335;51.486;7.562;2022-08-04T14:13:46;9.13;;;2.67;;
31760;SDS011;18335;51.486;7.562;2022-08-04T14:16:14;7.95;;;2.92;;
31760;SDS011;18335;51.486;7.562;2022-08-04T14:18:43;11.35;;;3.80;;
31760;SDS011;18335;51.486;7.562;2022-08-04T14:21:10;11.30;;;2.95;;
31760;SDS011;18335;51.486;7.562;2022-08-04T14:23:39;7.63;;;3.50;;
31760;SDS011;18335;51.486;7.562;2022-08-04T14:26:18;13.90;;;3.42;;
31760;SDS011;18335;51.486;7.562;2022-08-04T14:28:48;8.50;;;3.78;;
31760;SDS011;18335;51.486;7.562;2022-08-04T14:31:16;12.32;;;3.10;;
31760;SDS011;18335;51.486;7.562;2022-08-04T14:33:44;12.75;;;3.25;;
31760;SDS011;18335;51.486;7.562;2022-08-04T14:36:12;14.77;;;3.78;;
31760;SDS011;18335;51.486;7.562;2022-08-04T14:38:42;8.55;;;2.92;;
31760;SDS011;18335;51.486;7.562;2022-08-04T14:41:10;13.88;;;3.60;;
31760;SDS011;18335;51.486;7.562;2022-08-04T14:43:42;11.13;;;3.55;;
31760;SDS011;18335;51.486;7.562;2022-08-04T14:46:12;10.52;;;3.47;;
31760;SDS011;18335;51.486;7.562;2022-08-04T14:48:38;9.45;;;3.65;;
31760;SDS011;18335;51.486;7.562;2022-08-04T14:51:24;7.72;;;2.80;;
31760;SDS011;18335;51.486;7.562;2022-08-04T14:53:51;9.57;;;3.22;;
31760;SDS011;18335;51.486;7.562;2022-08-04T14:56:18;11.00;;;3.58;;
31760;SDS011;18335;51.486;7.562;2022-08-04T14:58:45;10.70;;;3.88;;
31760;SDS011;18335;51.486;7.562;2022-08-04T15:01:24;12.35;;;3.97;;
31760;SDS011;18335;51.486;7.562;2022-08-04T15:03:53;14.70;;;4.53;;
31760;SDS011;18335;51.486;7.562;2022-08-04T15:06:21;10.52;;;3.13;;
31760;SDS011;18335;51.486;7.562;2022-08-04T15:08:50;10.10;;;3.10;;
31760;SDS011;18335;51.486;7.562;2022-08-04T15:11:18;12.00;;;3.72;;
31760;SDS011;18335;51.486;7.562;2022-08-04T15:13:45;9.63;;;3.88;;
31760;SDS011;18335;51.486;7.562;2022-08-04T15:16:12;8.98;;;3.38;;
31760;SDS011;18335;51.486;7.562;2022-08-04T15:18:41;12.40;;;3.83;;
31760;SDS011;18335;51.486;7.562;2022-08-04T15:21:07;11.90;;;3.13;;
31760;SDS011;18335;51.486;7.562;2022-08-04T15:23:36;8.82;;;3.38;;
31760;SDS011;18335;51.486;7.562;2022-08-04T15:26:03;12.00;;;3.05;;
31760;SDS011;18335;51.486;7.562;2022-08-04T15:28:31;8.45;;;3.17;;
31760;SDS011;18335;51.486;7.562;2022-08-04T15:31:02;13.95;;;3.92;;
31760;SDS011;18335;51.486;7.562;2022-08-04T15:33:30;13.05;;;3.55;;
31760;SDS011;18335;51.486;7.562;2022-08-04T15:36:09;9.88;;;3.83;;
31760;SDS011;18335;51.486;7.562;2022-08-04T15:38:42;8.27;;;3.28;;
31760;SDS011;18335;51.486;7.562;2022-08-04T15:41:19;10.73;;;3.00;;
31760;SDS011;18335;51.486;7.562;2022-08-04T15:43:59;6.32;;;2.95;;
31760;SDS011;18335;51.486;7.562;2022-08-04T15:49:36;11.52;;;3.15;;
31760;SDS011;18335;51.486;7.562;2022-08-04T15:52:07;12.52;;;3.70;;